sensor_id;sensor_type;location;lat;lon;timestamp;P1;durP1;ratioP1;P2;durP2;ratioP2
3733;SDS011;1882;52.256;8.874;2023-08-07T00:02:00;14.10;;;8.27;;
3733;SDS011;1882;52.256;8.874;2023-08-07T00:04:27;21.47;;;9.00;;
3733;SDS011;1882;52.256;8.874;2023-08-07T00:06:54;14.93;;;8.40;;
3733;SDS011;1882;52.256;8.874;2023-08-07T00:09:21;14.30;;;7.70;;
3733;SDS011;1882;52.256;8.874;2023-08-07T00:11:48;14.37;;;8.10;;
3733;SDS011;1882;52.256;8.874;2023-08-07T00:14:15;16.53;;;8.10;;
3733;SDS011;1882;52.256;8.874;2023-08-07T00:16:44;15.63;;;8.50;;
3733;SDS011;1882;52.256;8.874;2023-08-07T00:19:13;15.60;;;7.87;;
3733;SDS011;1882;52.256;8.874;2023-08-07T00:21:40;14.53;;;8.70;;
3733;SDS011;1882;52.256;8.874;2023-08-07T00:24:08;15.00;;;8.60;;
3733;SDS011;1882;52.256;8.874;2023-08-07T00:26:40;16.53;;;8.60;;
3733;SDS011;1882;52.256;8.874;2023-08-07T00:29:08;14.37;;;8.03;;
3733;SDS011;1882;52.256;8.874;2023-08-07T00:31:38;15.20;;;8.77;;
3733;SDS011;1882;52.256;8.874;2023-08-07T00:34:13;16.80;;;8.40;;
3733;SDS011;1882;52.256;8.874;2023-08-07T00:36:39;15.30;;;8.40;;
3733;SDS011;1882;52.256;8.874;2023-08-07T00:39:08;11.93;;;7.83;;
3733;SDS011;1882;52.256;8.874;2023-08-07T00:41:41;14.20;;;7.90;;
3733;SDS011;1882;52.256;8.874;2023-08-07T00:44:14;13.93;;;7.27;;
3733;SDS011;1882;52.256;8.874;2023-08-07T00:46:40;14.50;;;7.50;;
3733;SDS011;1882;52.256;8.874;2023-08-07T00:49:17;14.00;;;8.00;;
3733;SDS011;1882;52.256;8.874;2023-08-07T00:51:45;12.03;;;7.10;;
3733;SDS011;1882;52.256;8.874;2023-08-07T00:54:13;13.13;;;7.97;;
3733;SDS011;1882;52.256;8.874;2023-08-07T00:56:43;11.13;;;7.10;;
3733;SDS011;1882;52.256;8.874;2023-08-07T00:59:10;11.90;;;7.23;;
3733;SDS011;1882;52.256;8.874;2023-08-07T01:01:37;10.13;;;7.33;;
3733;SDS011;1882;52.256;8.874;2023-08-07T01:04:06;11.47;;;6.70;;
3733;SDS011;1882;52.256;8.874;2023-08-07T01:06:37;12.30;;;6.47;;
3733;SDS011;1882;52.256;8.874;2023-08-07T01:09:11;9.37;;;6.67;;
3733;SDS011;1882;52.256;8.874;2023-08-07T01:11:45;17.33;;;7.33;;
3733;SDS011;1882;52.256;8.874;2023-08-07T01:14:25;10.10;;;6.73;;
3733;SDS011;1882;52.256;8.874;2023-08-07T01:17:08;10.70;;;6.23;;
3733;SDS011;1882;52.256;8.874;2023-08-07T01:19:37;13.67;;;6.07;;
3733;SDS011;1882;52.256;8.874;2023-08-07T01:24:34;16.33;;;6.80;;
3733;SDS011;1882;52.256;8.874;2023-08-07T01:35:07;13.20;;;6.60;;
3733;SDS011;1882;52.256;8.874;2023-08-07T01:37:35;15.13;;;6.80;;
3733;SDS011;1882;52.256;8.874;2023-08-07T01:40:03;14.90;;;7.10;;
3733;SDS011;1882;52.256;8.874;2023-08-07T01:42:31;10.80;;;6.80;;
3733;SDS011;1882;52.256;8.874;2023-08-07T01:44:58;15.37;;;6.80;;
3733;SDS011;1882;52.256;8.874;2023-08-07T01:47:25;14.30;;;6.20;;
3733;SDS011;1882;52.256;8.874;2023-08-07T01:49:52;12.60;;;7.10;;
3733;SDS011;1882;52.256;8.874;2023-08-07T01:52:19;13.70;;;6.17;;
3733;SDS011;1882;52.256;8.874;2023-08-07T01:54:47;9.93;;;6.10;;
3733;SDS011;1882;52.256;8.874;2023-08-07T01:57:13;11.50;;;6.13;;
3733;SDS011;1882;52.256;8.874;2023-08-07T01:59:40;11.97;;;7.00;;
3733;SDS011;1882;52.256;8.874;2023-08-07T02:02:07;14.87;;;6.90;;
3733;SDS011;1882;52.256;8.874;2023-08-07T02:04:34;13.20;;;7.43;;
3733;SDS011;1882;52.256;8.874;2023-08-07T02:07:00;12.87;;;7.60;;
3733;SDS011;1882;52.256;8.874;2023-08-07T02:09:27;13.87;;;7.57;;
3733;SDS011;1882;52.256;8.874;2023-08-07T02:11:54;14.77;;;7.00;;
3733;SDS011;1882;52.256;8.874;2023-08-07T02:14:21;9.93;;;6.90;;
3733;SDS011;1882;52.256;8.874;2023-08-07T02:16:48;11.23;;;7.53;;
3733;SDS011;1882;52.256;8.874;2023-08-07T02:19:14;14.50;;;7.60;;
3733;SDS011;1882;52.256;8.874;2023-08-07T02:21:41;19.53;;;8.13;;
3733;SDS011;1882;52.256;8.874;2023-08-07T02:24:08;17.80;;;8.27;;
3733;SDS011;1882;52.256;8.874;2023-08-07T02:26:37;12.93;;;8.10;;
3733;SDS011;1882;52.256;8.874;2023-08-07T02:29:03;16.40;;;8.33;;
3733;SDS011;1882;52.256;8.874;2023-08-07T02:31:34;20.70;;;8.00;;
3733;SDS011;1882;52.256;8.874;2023-08-07T02:34:00;14.57;;;8.70;;
3733;SDS011;1882;52.256;8.874;2023-08-07T02:36:29;19.77;;;7.80;;
3733;SDS011;1882;52.256;8.874;2023-08-07T02:38:56;17.97;;;7.80;;
3733;SDS011;1882;52.256;8.874;2023-08-07T02:41:23;13.93;;;7.80;;
3733;SDS011;1882;52.256;8.874;2023-08-07T02:43:49;15.87;;;7.50;;
3733;SDS011;1882;52.256;8.874;2023-08-07T02:46:16;15.87;;;8.00;;
3733;SDS011;1882;52.256;8.874;2023-08-07T02:48:43;19.10;;;7.70;;
3733;SDS011;1882;52.256;8.874;2023-08-07T02:51:10;21.90;;;9.23;;
3733;SDS011;1882;52.256;8.874;2023-08-07T02:53:37;16.20;;;8.37;;
3733;SDS011;1882;52.256;8.874;2023-08-07T02:56:04;17.27;;;7.50;;
3733;SDS011;1882;52.256;8.874;2023-08-07T02:58:30;15.03;;;9.00;;
3733;SDS011;1882;52.256;8.874;2023-08-07T03:01:02;14.43;;;7.97;;
3733;SDS011;1882;52.256;8.874;2023-08-07T03:03:32;13.53;;;7.63;;
3733;SDS011;1882;52.256;8.874;2023-08-07T03:05:59;15.23;;;8.20;;
3733;SDS011;1882;52.256;8.874;2023-08-07T03:08:26;22.07;;;9.10;;
3733;SDS011;1882;52.256;8.874;2023-08-07T03:10:53;15.47;;;8.47;;
3733;SDS011;1882;52.256;8.874;2023-08-07T03:13:26;10.67;;;7.73;;
3733;SDS011;1882;52.256;8.874;2023-08-07T03:15:59;18.90;;;7.77;;
3733;SDS011;1882;52.256;8.874;2023-08-07T03:18:27;14.17;;;8.20;;
3733;SDS011;1882;52.256;8.874;2023-08-07T03:20:58;17.53;;;8.00;;
3733;SDS011;1882;52.256;8.874;2023-08-07T03:23:25;11.80;;;7.30;;
3733;SDS011;1882;52.256;8.874;2023-08-07T03:28:39;15.67;;;8.47;;
3733;SDS011;1882;52.256;8.874;2023-08-07T03:31:08;13.60;;;8.00;;
3733;SDS011;1882;52.256;8.874;2023-08-07T03:33:36;15.77;;;7.63;;
3733;SDS011;1882;52.256;8.874;2023-08-07T03:36:03;13.43;;;7.63;;
3733;SDS011;1882;52.256;8.874;2023-08-07T03:38:31;13.20;;;8.40;;
3733;SDS011;1882;52.256;8.874;2023-08-07T03:40:59;14.73;;;9.03;;
3733;SDS011;1882;52.256;8.874;2023-08-07T03:43:26;12.03;;;7.97;;
3733;SDS011;1882;52.256;8.874;2023-08-07T03:45:55;19.00;;;8.43;;
3733;SDS011;1882;52.256;8.874;2023-08-07T03:48:29;15.83;;;8.03;;
3733;SDS011;1882;52.256;8.874;2023-08-07T03:51:05;18.23;;;8.57;;
3733;SDS011;1882;52.256;8.874;2023-08-07T03:53:41;12.60;;;8.27;;
3733;SDS011;1882;52.256;8.874;2023-08-07T03:56:08;15.83;;;8.17;;
3733;SDS011;1882;52.256;8.874;2023-08-07T03:58:35;12.33;;;8.30;;
3733;SDS011;1882;52.256;8.874;2023-08-07T04:01:02;12.20;;;7.90;;
3733;SDS011;1882;52.256;8.874;2023-08-07T04:03:30;14.47;;;8.50;;
3733;SDS011;1882;52.256;8.874;2023-08-07T04:06:00;13.27;;;8.20;;
3733;SDS011;1882;52.256;8.874;2023-08-07T04:08:28;14.27;;;8.00;;
3733;SDS011;1882;52.256;8.874;2023-08-07T04:10:59;17.30;;;8.27;;
3733;SDS011;1882;52.256;8.874;2023-08-07T04:13:30;15.33;;;8.80;;
3733;SDS011;1882;52.256;8.874;2023-08-07T04:15:57;15.10;;;8.23;;
3733;SDS011;1882;52.256;8.874;2023-08-07T04:18:25;12.97;;;8.50;;
3733;SDS011;1882;52.256;8.874;2023-08-07T04:20:52;15.73;;;8.50;;
3733;SDS011;1882;52.256;8.874;2023-08-07T04:23:20;15.10;;;8.70;;
3733;SDS011;1882;52.256;8.874;2023-08-07T04:25:50;16.10;;;7.97;;
3733;SDS011;1882;52.256;8.874;2023-08-07T04:28:20;13.10;;;8.53;;
3733;SDS011;1882;52.256;8.874;2023-08-07T04:30:51;22.53;;;9.47;;
3733;SDS011;1882;52.256;8.874;2023-08-07T04:33:21;13.60;;;8.83;;
3733;SDS011;1882;52.256;8.874;2023-08-07T04:35:50;14.77;;;8.50;;
3733;SDS011;1882;52.256;8.874;2023-08-07T04:38:22;18.10;;;8.87;;
3733;SDS011;1882;52.256;8.874;2023-08-07T04:40:49;14.03;;;8.70;;
3733;SDS011;1882;52.256;8.874;2023-08-07T04:43:17;13.40;;;8.10;;
3733;SDS011;1882;52.256;8.874;2023-08-07T04:45:49;11.30;;;8.87;;
3733;SDS011;1882;52.256;8.874;2023-08-07T04:48:16;19.60;;;8.10;;
3733;SDS011;1882;52.256;8.874;2023-08-07T04:50:44;14.73;;;8.37;;
3733;SDS011;1882;52.256;8.874;2023-08-07T04:53:11;16.57;;;8.03;;
3733;SDS011;1882;52.256;8.874;2023-08-07T04:55:38;14.80;;;7.60;;
3733;SDS011;1882;52.256;8.874;2023-08-07T04:58:05;10.87;;;6.77;;
3733;SDS011;1882;52.256;8.874;2023-08-07T05:00:32;12.50;;;7.40;;
3733;SDS011;1882;52.256;8.874;2023-08-07T05:03:01;13.77;;;7.10;;
3733;SDS011;1882;52.256;8.874;2023-08-07T05:05:28;12.80;;;7.00;;
3733;SDS011;1882;52.256;8.874;2023-08-07T05:07:55;15.60;;;6.50;;
3733;SDS011;1882;52.256;8.874;2023-08-07T05:10:22;7.93;;;6.63;;
3733;SDS011;1882;52.256;8.874;2023-08-07T05:12:48;11.93;;;7.10;;
3733;SDS011;1882;52.256;8.874;2023-08-07T05:15:24;9.90;;;6.20;;
3733;SDS011;1882;52.256;8.874;2023-08-07T05:17:52;11.07;;;6.43;;
3733;SDS011;1882;52.256;8.874;2023-08-07T05:20:19;6.30;;;5.40;;
3733;SDS011;1882;52.256;8.874;2023-08-07T05:22:46;9.80;;;6.30;;
3733;SDS011;1882;52.256;8.874;2023-08-07T05:25:13;9.57;;;5.80;;
3733;SDS011;1882;52.256;8.874;2023-08-07T05:27:44;7.20;;;5.40;;
3733;SDS011;1882;52.256;8.874;2023-08-07T05:30:11;11.43;;;5.00;;
3733;SDS011;1882;52.256;8.874;2023-08-07T05:32:38;10.10;;;5.70;;
3733;SDS011;1882;52.256;8.874;2023-08-07T05:35:06;8.00;;;5.87;;
3733;SDS011;1882;52.256;8.874;2023-08-07T05:37:33;8.60;;;6.00;;
3733;SDS011;1882;52.256;8.874;2023-08-07T05:40:01;7.30;;;5.50;;
3733;SDS011;1882;52.256;8.874;2023-08-07T05:42:31;9.67;;;5.90;;
3733;SDS011;1882;52.256;8.874;2023-08-07T05:45:05;8.80;;;5.93;;
3733;SDS011;1882;52.256;8.874;2023-08-07T05:47:35;10.70;;;6.17;;
3733;SDS011;1882;52.256;8.874;2023-08-07T05:50:02;11.50;;;6.60;;
3733;SDS011;1882;52.256;8.874;2023-08-07T05:52:29;10.90;;;6.30;;
3733;SDS011;1882;52.256;8.874;2023-08-07T05:54:56;13.10;;;6.10;;
3733;SDS011;1882;52.256;8.874;2023-08-07T05:57:22;8.93;;;6.13;;
3733;SDS011;1882;52.256;8.874;2023-08-07T05:59:49;9.10;;;6.50;;
3733;SDS011;1882;52.256;8.874;2023-08-07T06:02:16;11.77;;;6.47;;
3733;SDS011;1882;52.256;8.874;2023-08-07T06:04:42;8.60;;;5.60;;
3733;SDS011;1882;52.256;8.874;2023-08-07T06:07:18;10.10;;;5.73;;
3733;SDS011;1882;52.256;8.874;2023-08-07T06:09:45;13.03;;;5.90;;
3733;SDS011;1882;52.256;8.874;2023-08-07T06:12:12;7.57;;;5.20;;
3733;SDS011;1882;52.256;8.874;2023-08-07T06:14:39;8.33;;;4.90;;
3733;SDS011;1882;52.256;8.874;2023-08-07T06:17:13;8.50;;;4.90;;
3733;SDS011;1882;52.256;8.874;2023-08-07T06:19:40;10.23;;;5.70;;
3733;SDS011;1882;52.256;8.874;2023-08-07T06:22:06;9.37;;;5.90;;
3733;SDS011;1882;52.256;8.874;2023-08-07T06:24:33;8.37;;;5.00;;
3733;SDS011;1882;52.256;8.874;2023-08-07T06:27:01;12.23;;;6.20;;
3733;SDS011;1882;52.256;8.874;2023-08-07T06:29:29;8.83;;;4.93;;
3733;SDS011;1882;52.256;8.874;2023-08-07T06:31:55;11.37;;;4.90;;
3733;SDS011;1882;52.256;8.874;2023-08-07T06:34:23;9.90;;;5.00;;
3733;SDS011;1882;52.256;8.874;2023-08-07T06:36:50;9.90;;;5.10;;
3733;SDS011;1882;52.256;8.874;2023-08-07T06:39:24;8.00;;;4.90;;
3733;SDS011;1882;52.256;8.874;2023-08-07T06:41:51;9.43;;;4.47;;
3733;SDS011;1882;52.256;8.874;2023-08-07T06:44:24;8.73;;;4.90;;
3733;SDS011;1882;52.256;8.874;2023-08-07T06:46:50;6.70;;;3.90;;
3733;SDS011;1882;52.256;8.874;2023-08-07T06:49:20;10.43;;;5.03;;
3733;SDS011;1882;52.256;8.874;2023-08-07T06:51:48;9.70;;;4.60;;
3733;SDS011;1882;52.256;8.874;2023-08-07T06:54:14;6.27;;;3.93;;
3733;SDS011;1882;52.256;8.874;2023-08-07T06:56:44;8.70;;;4.23;;
3733;SDS011;1882;52.256;8.874;2023-08-07T06:59:14;6.53;;;3.80;;
3733;SDS011;1882;52.256;8.874;2023-08-07T07:01:40;7.90;;;3.87;;
3733;SDS011;1882;52.256;8.874;2023-08-07T07:04:09;7.10;;;4.40;;
3733;SDS011;1882;52.256;8.874;2023-08-07T07:06:45;8.63;;;3.97;;
3733;SDS011;1882;52.256;8.874;2023-08-07T07:09:14;7.97;;;3.87;;
3733;SDS011;1882;52.256;8.874;2023-08-07T07:11:45;8.30;;;4.60;;
3733;SDS011;1882;52.256;8.874;2023-08-07T07:14:15;9.33;;;3.97;;
3733;SDS011;1882;52.256;8.874;2023-08-07T07:16:44;7.07;;;4.00;;
3733;SDS011;1882;52.256;8.874;2023-08-07T07:19:15;8.00;;;3.77;;
3733;SDS011;1882;52.256;8.874;2023-08-07T07:21:45;8.00;;;4.20;;
3733;SDS011;1882;52.256;8.874;2023-08-07T07:24:14;5.80;;;3.67;;
3733;SDS011;1882;52.256;8.874;2023-08-07T07:26:44;11.33;;;3.87;;
3733;SDS011;1882;52.256;8.874;2023-08-07T07:29:17;8.43;;;3.70;;
3733;SDS011;1882;52.256;8.874;2023-08-07T07:31:45;6.40;;;3.73;;
3733;SDS011;1882;52.256;8.874;2023-08-07T07:34:12;9.40;;;3.57;;
3733;SDS011;1882;52.256;8.874;2023-08-07T07:36:46;8.97;;;3.90;;
3733;SDS011;1882;52.256;8.874;2023-08-07T07:39:13;7.60;;;3.70;;
3733;SDS011;1882;52.256;8.874;2023-08-07T07:41:47;7.60;;;3.70;;
3733;SDS011;1882;52.256;8.874;2023-08-07T07:44:17;5.83;;;3.40;;
3733;SDS011;1882;52.256;8.874;2023-08-07T07:46:44;7.53;;;3.83;;
3733;SDS011;1882;52.256;8.874;2023-08-07T07:49:13;15.10;;;3.30;;
3733;SDS011;1882;52.256;8.874;2023-08-07T07:51:40;8.00;;;3.60;;
3733;SDS011;1882;52.256;8.874;2023-08-07T07:54:10;6.70;;;3.63;;
3733;SDS011;1882;52.256;8.874;2023-08-07T07:56:44;5.30;;;2.93;;
3733;SDS011;1882;52.256;8.874;2023-08-07T07:59:18;4.27;;;2.50;;
3733;SDS011;1882;52.256;8.874;2023-08-07T08:01:45;4.23;;;2.70;;
3733;SDS011;1882;52.256;8.874;2023-08-07T08:04:15;5.33;;;3.03;;
3733;SDS011;1882;52.256;8.874;2023-08-07T08:06:51;7.17;;;3.40;;
3733;SDS011;1882;52.256;8.874;2023-08-07T08:09:18;4.50;;;3.00;;
3733;SDS011;1882;52.256;8.874;2023-08-07T08:11:45;3.27;;;2.47;;
3733;SDS011;1882;52.256;8.874;2023-08-07T08:14:12;6.00;;;2.70;;
3733;SDS011;1882;52.256;8.874;2023-08-07T08:16:50;2.60;;;2.40;;
3733;SDS011;1882;52.256;8.874;2023-08-07T08:19:17;5.23;;;2.83;;
3733;SDS011;1882;52.256;8.874;2023-08-07T08:21:49;13.87;;;3.30;;
3733;SDS011;1882;52.256;8.874;2023-08-07T08:24:19;4.73;;;2.60;;
3733;SDS011;1882;52.256;8.874;2023-08-07T08:26:46;5.50;;;2.80;;
3733;SDS011;1882;52.256;8.874;2023-08-07T08:29:16;4.13;;;2.70;;
3733;SDS011;1882;52.256;8.874;2023-08-07T08:31:51;10.80;;;3.07;;
3733;SDS011;1882;52.256;8.874;2023-08-07T08:34:21;8.03;;;2.90;;
3733;SDS011;1882;52.256;8.874;2023-08-07T08:36:48;5.43;;;2.90;;
3733;SDS011;1882;52.256;8.874;2023-08-07T08:39:22;6.43;;;3.10;;
3733;SDS011;1882;52.256;8.874;2023-08-07T08:41:49;6.73;;;3.23;;
3733;SDS011;1882;52.256;8.874;2023-08-07T08:44:16;2.77;;;2.00;;
3733;SDS011;1882;52.256;8.874;2023-08-07T08:46:44;4.40;;;2.43;;
3733;SDS011;1882;52.256;8.874;2023-08-07T08:49:14;2.20;;;2.00;;
3733;SDS011;1882;52.256;8.874;2023-08-07T08:51:45;6.23;;;1.90;;
3733;SDS011;1882;52.256;8.874;2023-08-07T08:54:14;5.30;;;2.27;;
3733;SDS011;1882;52.256;8.874;2023-08-07T08:56:45;8.90;;;3.10;;
3733;SDS011;1882;52.256;8.874;2023-08-07T08:59:15;5.57;;;3.17;;
3733;SDS011;1882;52.256;8.874;2023-08-07T09:01:45;5.80;;;3.10;;
3733;SDS011;1882;52.256;8.874;2023-08-07T09:04:15;8.10;;;2.73;;
3733;SDS011;1882;52.256;8.874;2023-08-07T09:06:45;5.10;;;2.87;;
3733;SDS011;1882;52.256;8.874;2023-08-07T09:09:13;8.97;;;2.80;;
3733;SDS011;1882;52.256;8.874;2023-08-07T09:11:44;7.73;;;2.90;;
3733;SDS011;1882;52.256;8.874;2023-08-07T09:14:14;5.10;;;3.00;;
3733;SDS011;1882;52.256;8.874;2023-08-07T09:16:44;7.83;;;3.00;;
3733;SDS011;1882;52.256;8.874;2023-08-07T09:19:13;9.10;;;2.73;;
3733;SDS011;1882;52.256;8.874;2023-08-07T09:21:45;7.50;;;3.00;;
3733;SDS011;1882;52.256;8.874;2023-08-07T09:24:19;8.00;;;2.60;;
3733;SDS011;1882;52.256;8.874;2023-08-07T09:26:48;4.00;;;2.00;;
3733;SDS011;1882;52.256;8.874;2023-08-07T09:29:18;4.13;;;2.50;;
3733;SDS011;1882;52.256;8.874;2023-08-07T09:31:46;7.93;;;2.47;;
3733;SDS011;1882;52.256;8.874;2023-08-07T09:34:19;7.47;;;2.57;;
3733;SDS011;1882;52.256;8.874;2023-08-07T09:36:46;8.03;;;2.47;;
3733;SDS011;1882;52.256;8.874;2023-08-07T09:39:13;7.00;;;2.33;;
3733;SDS011;1882;52.256;8.874;2023-08-07T09:41:58;5.90;;;2.70;;
3733;SDS011;1882;52.256;8.874;2023-08-07T09:44:25;7.77;;;2.63;;
3733;SDS011;1882;52.256;8.874;2023-08-07T09:47:09;9.50;;;3.40;;
3733;SDS011;1882;52.256;8.874;2023-08-07T09:50:05;5.50;;;3.10;;
3733;SDS011;1882;52.256;8.874;2023-08-07T09:52:35;7.97;;;2.63;;
3733;SDS011;1882;52.256;8.874;2023-08-07T09:55:33;12.57;;;3.10;;
3733;SDS011;1882;52.256;8.874;2023-08-07T09:58:00;8.33;;;3.20;;
3733;SDS011;1882;52.256;8.874;2023-08-07T10:00:28;6.90;;;2.67;;
3733;SDS011;1882;52.256;8.874;2023-08-07T10:03:00;7.30;;;2.77;;
3733;SDS011;1882;52.256;8.874;2023-08-07T10:05:28;11.53;;;3.13;;
3733;SDS011;1882;52.256;8.874;2023-08-07T10:07:57;11.40;;;2.77;;
3733;SDS011;1882;52.256;8.874;2023-08-07T10:10:24;6.67;;;2.63;;
3733;SDS011;1882;52.256;8.874;2023-08-07T10:13:00;7.87;;;2.37;;
3733;SDS011;1882;52.256;8.874;2023-08-07T10:15:28;6.30;;;2.50;;
3733;SDS011;1882;52.256;8.874;2023-08-07T10:17:56;9.67;;;2.70;;
3733;SDS011;1882;52.256;8.874;2023-08-07T10:20:32;5.47;;;2.40;;
3733;SDS011;1882;52.256;8.874;2023-08-07T10:23:08;4.57;;;2.43;;
3733;SDS011;1882;52.256;8.874;2023-08-07T10:25:39;7.97;;;2.70;;
3733;SDS011;1882;52.256;8.874;2023-08-07T10:28:08;7.43;;;2.50;;
3733;SDS011;1882;52.256;8.874;2023-08-07T10:30:41;4.80;;;2.47;;
3733;SDS011;1882;52.256;8.874;2023-08-07T10:33:09;7.03;;;2.30;;
3733;SDS011;1882;52.256;8.874;2023-08-07T10:35:37;8.73;;;2.27;;
3733;SDS011;1882;52.256;8.874;2023-08-07T10:43:39;12.77;;;3.27;;
3733;SDS011;1882;52.256;8.874;2023-08-07T10:46:19;5.30;;;2.57;;
3733;SDS011;1882;52.256;8.874;2023-08-07T10:48:54;7.63;;;2.73;;
3733;SDS011;1882;52.256;8.874;2023-08-07T10:51:27;8.33;;;2.70;;
3733;SDS011;1882;52.256;8.874;2023-08-07T10:53:57;6.90;;;3.00;;
3733;SDS011;1882;52.256;8.874;2023-08-07T10:56:30;8.27;;;2.60;;
3733;SDS011;1882;52.256;8.874;2023-08-07T10:59:09;8.67;;;2.70;;
3733;SDS011;1882;52.256;8.874;2023-08-07T11:04:09;8.10;;;2.90;;
3733;SDS011;1882;52.256;8.874;2023-08-07T11:06:37;9.33;;;2.93;;
3733;SDS011;1882;52.256;8.874;2023-08-07T11:09:05;4.60;;;2.60;;
3733;SDS011;1882;52.256;8.874;2023-08-07T11:11:43;7.60;;;2.43;;
3733;SDS011;1882;52.256;8.874;2023-08-07T11:14:18;5.40;;;2.10;;
3733;SDS011;1882;52.256;8.874;2023-08-07T11:16:46;6.80;;;2.20;;
3733;SDS011;1882;52.256;8.874;2023-08-07T11:19:14;7.40;;;2.30;;
3733;SDS011;1882;52.256;8.874;2023-08-07T11:21:41;9.70;;;2.90;;
3733;SDS011;1882;52.256;8.874;2023-08-07T11:24:11;5.67;;;2.50;;
3733;SDS011;1882;52.256;8.874;2023-08-07T11:26:41;4.87;;;2.40;;
3733;SDS011;1882;52.256;8.874;2023-08-07T11:29:09;9.63;;;2.83;;
3733;SDS011;1882;52.256;8.874;2023-08-07T11:31:35;7.33;;;2.50;;
3733;SDS011;1882;52.256;8.874;2023-08-07T11:34:02;5.30;;;2.67;;
3733;SDS011;1882;52.256;8.874;2023-08-07T11:36:29;5.83;;;2.40;;
3733;SDS011;1882;52.256;8.874;2023-08-07T11:38:56;7.20;;;2.60;;
3733;SDS011;1882;52.256;8.874;2023-08-07T11:41:23;6.60;;;3.07;;
3733;SDS011;1882;52.256;8.874;2023-08-07T11:43:49;5.07;;;2.33;;
3733;SDS011;1882;52.256;8.874;2023-08-07T11:46:16;6.67;;;3.00;;
3733;SDS011;1882;52.256;8.874;2023-08-07T11:48:43;7.27;;;2.70;;
3733;SDS011;1882;52.256;8.874;2023-08-07T11:51:11;11.43;;;3.10;;
3733;SDS011;1882;52.256;8.874;2023-08-07T11:53:39;7.90;;;2.60;;
3733;SDS011;1882;52.256;8.874;2023-08-07T11:56:10;6.27;;;2.93;;
3733;SDS011;1882;52.256;8.874;2023-08-07T11:58:45;6.60;;;3.03;;
3733;SDS011;1882;52.256;8.874;2023-08-07T12:03:42;5.57;;;2.60;;
3733;SDS011;1882;52.256;8.874;2023-08-07T12:06:16;9.20;;;3.10;;
3733;SDS011;1882;52.256;8.874;2023-08-07T12:08:43;8.97;;;3.00;;
3733;SDS011;1882;52.256;8.874;2023-08-07T12:11:13;8.40;;;3.00;;
3733;SDS011;1882;52.256;8.874;2023-08-07T12:13:40;6.60;;;2.73;;
3733;SDS011;1882;52.256;8.874;2023-08-07T12:16:08;12.10;;;3.70;;
3733;SDS011;1882;52.256;8.874;2023-08-07T12:18:35;8.07;;;3.07;;
3733;SDS011;1882;52.256;8.874;2023-08-07T12:21:05;7.47;;;3.00;;
3733;SDS011;1882;52.256;8.874;2023-08-07T12:23:33;6.00;;;2.90;;
3733;SDS011;1882;52.256;8.874;2023-08-07T12:26:02;10.90;;;3.53;;
3733;SDS011;1882;52.256;8.874;2023-08-07T12:28:29;5.90;;;2.90;;
3733;SDS011;1882;52.256;8.874;2023-08-07T12:30:58;13.13;;;2.90;;
3733;SDS011;1882;52.256;8.874;2023-08-07T12:33:25;8.33;;;3.13;;
3733;SDS011;1882;52.256;8.874;2023-08-07T12:35:54;9.07;;;2.83;;
3733;SDS011;1882;52.256;8.874;2023-08-07T12:38:29;6.67;;;2.63;;
3733;SDS011;1882;52.256;8.874;2023-08-07T12:40:56;10.37;;;2.80;;
3733;SDS011;1882;52.256;8.874;2023-08-07T12:43:23;8.43;;;2.70;;
3733;SDS011;1882;52.256;8.874;2023-08-07T12:45:50;6.30;;;2.93;;
3733;SDS011;1882;52.256;8.874;2023-08-07T12:48:46;5.37;;;2.80;;
3733;SDS011;1882;52.256;8.874;2023-08-07T12:51:13;10.10;;;2.70;;
3733;SDS011;1882;52.256;8.874;2023-08-07T12:53:40;10.70;;;2.90;;
3733;SDS011;1882;52.256;8.874;2023-08-07T12:56:06;8.23;;;2.60;;
3733;SDS011;1882;52.256;8.874;2023-08-07T12:58:36;9.73;;;2.60;;
3733;SDS011;1882;52.256;8.874;2023-08-07T13:01:04;9.07;;;2.67;;
3733;SDS011;1882;52.256;8.874;2023-08-07T13:03:31;5.63;;;2.30;;
3733;SDS011;1882;52.256;8.874;2023-08-07T13:05:58;12.57;;;2.67;;
3733;SDS011;1882;52.256;8.874;2023-08-07T13:08:25;6.07;;;2.63;;
3733;SDS011;1882;52.256;8.874;2023-08-07T13:10:54;4.87;;;2.37;;
3733;SDS011;1882;52.256;8.874;2023-08-07T13:13:21;4.90;;;2.67;;
3733;SDS011;1882;52.256;8.874;2023-08-07T13:15:57;6.20;;;2.40;;
3733;SDS011;1882;52.256;8.874;2023-08-07T13:18:24;6.60;;;2.00;;
3733;SDS011;1882;52.256;8.874;2023-08-07T13:20:51;5.70;;;2.40;;
3733;SDS011;1882;52.256;8.874;2023-08-07T13:23:17;4.03;;;2.60;;
3733;SDS011;1882;52.256;8.874;2023-08-07T13:25:44;6.73;;;2.30;;
3733;SDS011;1882;52.256;8.874;2023-08-07T13:28:11;6.87;;;2.93;;
3733;SDS011;1882;52.256;8.874;2023-08-07T13:30:38;7.13;;;2.80;;
3733;SDS011;1882;52.256;8.874;2023-08-07T13:33:12;6.73;;;2.90;;
3733;SDS011;1882;52.256;8.874;2023-08-07T13:35:38;8.87;;;2.53;;
3733;SDS011;1882;52.256;8.874;2023-08-07T13:38:05;5.30;;;2.30;;
3733;SDS011;1882;52.256;8.874;2023-08-07T13:40:34;7.80;;;2.90;;
3733;SDS011;1882;52.256;8.874;2023-08-07T13:43:01;5.37;;;2.40;;
3733;SDS011;1882;52.256;8.874;2023-08-07T13:45:34;5.20;;;2.40;;
3733;SDS011;1882;52.256;8.874;2023-08-07T13:48:02;6.23;;;2.70;;
3733;SDS011;1882;52.256;8.874;2023-08-07T13:50:31;8.77;;;2.50;;
3733;SDS011;1882;52.256;8.874;2023-08-07T13:52:58;4.80;;;2.13;;
3733;SDS011;1882;52.256;8.874;2023-08-07T13:55:39;5.07;;;2.50;;
3733;SDS011;1882;52.256;8.874;2023-08-07T13:58:06;4.50;;;2.20;;
3733;SDS011;1882;52.256;8.874;2023-08-07T14:00:33;13.50;;;2.90;;
3733;SDS011;1882;52.256;8.874;2023-08-07T14:03:01;4.10;;;2.50;;
3733;SDS011;1882;52.256;8.874;2023-08-07T14:05:28;4.60;;;2.60;;
3733;SDS011;1882;52.256;8.874;2023-08-07T14:07:57;6.93;;;2.70;;
3733;SDS011;1882;52.256;8.874;2023-08-07T14:10:24;5.07;;;2.10;;
3733;SDS011;1882;52.256;8.874;2023-08-07T14:12:51;6.60;;;2.57;;
3733;SDS011;1882;52.256;8.874;2023-08-07T14:15:18;7.33;;;2.40;;
3733;SDS011;1882;52.256;8.874;2023-08-07T14:17:45;8.93;;;2.60;;
3733;SDS011;1882;52.256;8.874;2023-08-07T14:20:11;4.93;;;2.43;;
3733;SDS011;1882;52.256;8.874;2023-08-07T14:22:41;5.30;;;2.47;;
3733;SDS011;1882;52.256;8.874;2023-08-07T14:25:08;7.57;;;2.60;;
3733;SDS011;1882;52.256;8.874;2023-08-07T14:27:35;6.50;;;2.20;;
3733;SDS011;1882;52.256;8.874;2023-08-07T14:30:02;8.60;;;2.40;;
3733;SDS011;1882;52.256;8.874;2023-08-07T14:32:37;6.27;;;2.40;;
3733;SDS011;1882;52.256;8.874;2023-08-07T14:35:06;7.03;;;2.60;;
3733;SDS011;1882;52.256;8.874;2023-08-07T14:37:33;5.90;;;2.57;;
3733;SDS011;1882;52.256;8.874;2023-08-07T14:40:02;7.90;;;2.60;;
3733;SDS011;1882;52.256;8.874;2023-08-07T14:42:33;4.30;;;2.30;;
3733;SDS011;1882;52.256;8.874;2023-08-07T14:45:02;4.47;;;2.30;;
3733;SDS011;1882;52.256;8.874;2023-08-07T14:47:36;4.53;;;2.17;;
3733;SDS011;1882;52.256;8.874;2023-08-07T14:50:06;6.07;;;2.40;;
3733;SDS011;1882;52.256;8.874;2023-08-07T14:52:36;4.03;;;2.33;;
3733;SDS011;1882;52.256;8.874;2023-08-07T14:55:03;4.23;;;2.50;;
3733;SDS011;1882;52.256;8.874;2023-08-07T14:57:33;6.93;;;2.40;;
3733;SDS011;1882;52.256;8.874;2023-08-07T15:00:00;4.13;;;2.60;;
3733;SDS011;1882;52.256;8.874;2023-08-07T15:02:36;4.13;;;2.07;;
3733;SDS011;1882;52.256;8.874;2023-08-07T15:05:03;5.07;;;2.43;;
3733;SDS011;1882;52.256;8.874;2023-08-07T15:07:35;7.63;;;2.67;;
3733;SDS011;1882;52.256;8.874;2023-08-07T15:10:09;6.13;;;2.40;;
3733;SDS011;1882;52.256;8.874;2023-08-07T15:12:36;9.90;;;2.73;;
3733;SDS011;1882;52.256;8.874;2023-08-07T15:15:03;6.17;;;2.47;;
3733;SDS011;1882;52.256;8.874;2023-08-07T15:17:39;9.90;;;2.70;;
3733;SDS011;1882;52.256;8.874;2023-08-07T15:20:06;9.00;;;3.10;;
3733;SDS011;1882;52.256;8.874;2023-08-07T15:22:33;5.10;;;2.60;;
3733;SDS011;1882;52.256;8.874;2023-08-07T15:25:01;6.20;;;3.10;;
3733;SDS011;1882;52.256;8.874;2023-08-07T15:27:29;6.17;;;2.50;;
3733;SDS011;1882;52.256;8.874;2023-08-07T15:30:05;7.60;;;2.70;;
3733;SDS011;1882;52.256;8.874;2023-08-07T15:32:32;7.43;;;2.50;;
3733;SDS011;1882;52.256;8.874;2023-08-07T15:35:01;6.53;;;2.40;;
3733;SDS011;1882;52.256;8.874;2023-08-07T15:37:31;7.20;;;2.70;;
3733;SDS011;1882;52.256;8.874;2023-08-07T15:40:05;5.60;;;2.20;;
3733;SDS011;1882;52.256;8.874;2023-08-07T15:42:36;8.40;;;2.17;;
3733;SDS011;1882;52.256;8.874;2023-08-07T15:45:05;7.23;;;2.33;;
3733;SDS011;1882;52.256;8.874;2023-08-07T15:47:33;4.97;;;2.60;;